map of MJI home
MJI - Airport
Location
City:  Tripoli, Libyan Arab Jamahiriya (Libya)
Name:Mitiga
ICAO:HLLM
IATA:MJI

Details
Type:Airport (Aerodrome, Airfield)
Use:Public/Civil, Military
Latitude:3253'39"N (32.894085)
Longitude:1316'34"E (13.276000)
Datum:WGS 1984
Elevation:36 ft (11 m)
Variation:2.83E (WMM2015v2 magnetic declination)
0.11 annual change
Runways:2
Longest:11076 × 148 ft (3376 × 45 m), paved

Time
Time Zone:UTC+2
Local Time:

Weather
METAR:HLLM 041355Z 28017G31KT 7000 BKN015 12/05 Q1010
TAF:HLLM 040500Z 0406/0506 27012KT 7000 SCT080 PROB40 0406/0506 3000 TSRA FEW018CB BKN025 BKN070

Related Locations
Nearby:
Farthest:RAR: 11523 mi / 18544 km
Avarua [Rarotonga Intl], Rarotonga Island, CK

Find:

   beyond  
but within

Other Information
Maps:
NOTAMs:
Links:
Sources:

  
  • flag of Libyan Arab Jamahiriya (Libya)
  

Sectional Chart

Flight Planning
at skyvector.com

Satellite Image

Google Maps Satellite view

 

Copyright © 2004-2019 Karl L. Swartz. All rights reserved.
The Great Circle Mapper name and logo are trademarks of the Great Circle Mapper.
All other trademarks mentioned herein belong to their respective owners.
Please see credits for attibutions and further copyright information.

  Follow gcmap on Facebook Follow gcmap on Twitter GCmap on LinkedIn

hCard Microformat

Geo Microformat